Time;durP1;ratioP1;P1;durP2;ratioP2;P2;SDS_P1;SDS_P2;PMS_P1;PMS_P2;Temp;Humidity;BMP_temperature;BMP_pressure;BME280_temperature;BME280_humidity;BME280_pressure;Samples;Min_cycle;Max_cycle;Signal;HPM_P1;HPM_P2
2023/06/10 00:00:51;;;;;;;6.23;3.97;;;17.50;57.20;;;;;;5034144;28;20955;-57
2023/06/10 00:03:18;;;;;;;5.17;3.37;;;17.40;57.30;;;;;;5033933;28;20469;-60
2023/06/10 00:05:45;;;;;;;6.80;3.60;;;17.40;57.60;;;;;;5033573;28;20950;-56
2023/06/10 00:08:12;;;;;;;5.40;4.10;;;17.30;58.00;;;;;;5034362;28;20449;-58
2023/06/10 00:10:39;;;;;;;7.10;3.80;;;17.30;58.30;;;;;;5034143;28;20806;-59
2023/06/10 00:13:08;;;;;;;5.80;3.80;;;17.20;58.60;;;;;;5034620;28;20441;-59
2023/06/10 00:15:36;;;;;;;5.80;3.57;;;17.20;58.90;;;;;;5033912;28;20861;-58
2023/06/10 00:18:03;;;;;;;5.83;3.47;;;17.10;59.60;;;;;;5034186;28;20484;-56
2023/06/10 00:20:30;;;;;;;7.77;4.80;;;17.00;59.30;;;;;;5033380;28;20459;-57
2023/06/10 00:22:59;;;;;;;9.07;3.47;;;17.00;59.60;;;;;;5033530;28;20453;-58
2023/06/10 00:25:26;;;;;;;5.10;3.40;;;16.90;59.80;;;;;;5033904;28;20883;-57
2023/06/10 00:27:53;;;;;;;5.10;4.10;;;16.80;60.00;;;;;;5036846;28;20441;-58
2023/06/10 00:30:21;;;;;;;4.80;3.70;;;16.80;60.30;;;;;;5039008;28;20444;-57
2023/06/10 00:32:49;;;;;;;6.10;3.87;;;16.70;60.70;;;;;;5037460;28;20895;-57
2023/06/10 00:35:16;;;;;;;5.77;4.63;;;16.60;61.00;;;;;;5037169;28;20915;-57
2023/06/10 00:37:42;;;;;;;4.30;3.90;;;16.60;61.50;;;;;;5037255;28;20568;-57
2023/06/10 00:40:10;;;;;;;5.60;3.50;;;16.50;62.20;;;;;;5037466;28;20453;-58
2023/06/10 00:42:37;;;;;;;5.13;3.67;;;16.50;63.00;;;;;;5038181;28;20449;-58
2023/06/10 00:45:05;;;;;;;4.37;3.80;;;16.40;63.40;;;;;;5037346;28;20471;-57
2023/06/10 00:47:32;;;;;;;4.90;3.70;;;16.30;64.10;;;;;;5037046;28;20437;-58
2023/06/10 00:50:01;;;;;;;6.87;4.30;;;16.30;64.70;;;;;;5037172;28;20449;-57
2023/06/10 00:52:30;;;;;;;8.40;3.70;;;16.20;65.40;;;;;;5036874;28;20460;-57
2023/06/10 00:54:57;;;;;;;9.30;3.73;;;16.20;66.40;;;;;;5036645;28;20479;-59
2023/06/10 00:57:24;;;;;;;4.70;3.27;;;16.10;67.40;;;;;;5037471;28;20506;-58
2023/06/10 00:59:50;;;;;;;4.87;3.70;;;16.00;68.50;;;;;;5037441;28;20445;-57
2023/06/10 01:02:17;;;;;;;7.63;3.97;;;15.90;69.90;;;;;;5037226;28;20457;-57
2023/06/10 01:04:44;;;;;;;5.20;3.53;;;15.90;71.30;;;;;;5037479;28;20461;-58
2023/06/10 01:07:22;;;;;;;9.73;3.63;;;15.80;72.90;;;;;;5036983;28;20440;-58
2023/06/10 01:09:57;;;;;;;5.63;3.90;;;15.80;74.80;;;;;;5037078;28;20429;-57
2023/06/10 01:12:31;;;;;;;5.50;3.90;;;15.70;77.40;;;;;;5037022;28;20487;-57
2023/06/10 01:15:00;;;;;;;6.90;4.37;;;15.60;79.80;;;;;;5036287;28;20471;-58
2023/06/10 01:17:27;;;;;;;9.00;4.60;;;15.60;81.80;;;;;;5036141;28;20527;-55
2023/06/10 01:19:56;;;;;;;4.43;4.00;;;15.60;83.70;;;;;;5036376;28;20492;-58
2023/06/10 01:22:25;;;;;;;8.10;4.83;;;15.50;85.90;;;;;;5036647;28;20502;-58
2023/06/10 01:24:53;;;;;;;5.23;4.33;;;15.40;88.30;;;;;;5036628;28;20547;-59
2023/06/10 01:27:23;;;;;;;8.10;5.43;;;15.40;90.30;;;;;;5036588;28;20437;-57
2023/06/10 01:29:59;;;;;;;6.63;4.70;;;15.30;91.60;;;;;;5036807;28;20448;-58
2023/06/10 01:32:33;;;;;;;5.13;4.30;;;15.30;92.30;;;;;;5036441;28;20433;-54
2023/06/10 01:35:02;;;;;;;6.73;4.60;;;15.20;93.40;;;;;;5036499;28;20836;-58
2023/06/10 01:37:32;;;;;;;5.23;4.37;;;15.10;94.40;;;;;;5036469;28;20476;-57
2023/06/10 01:40:01;;;;;;;7.83;4.67;;;15.10;95.50;;;;;;5036318;28;20452;-57
2023/06/10 01:42:29;;;;;;;5.97;4.20;;;15.00;96.50;;;;;;5036584;28;20461;-58
2023/06/10 01:44:55;;;;;;;5.20;4.20;;;15.00;97.50;;;;;;5036988;28;20842;-58
2023/06/10 01:47:22;;;;;;;6.67;5.03;;;14.90;98.30;;;;;;5038196;28;20448;-57
2023/06/10 01:49:49;;;;;;;10.10;4.93;;;14.80;99.10;;;;;;5040184;28;20437;-56
2023/06/10 01:52:16;;;;;;;5.67;5.07;;;14.70;99.90;;;;;;5036095;28;20451;-58
2023/06/10 01:54:44;;;;;;;6.43;4.60;;;14.70;99.90;;;;;;5035170;28;21025;-57
2023/06/10 01:57:11;;;;;;;6.43;5.40;;;14.60;99.90;;;;;;5035357;28;20485;-57
2023/06/10 01:59:38;;;;;;;6.60;5.30;;;14.50;99.90;;;;;;5035294;28;20449;-57
2023/06/10 02:02:05;;;;;;;8.37;5.80;;;14.50;99.90;;;;;;5035493;28;20453;-57
2023/06/10 02:04:32;;;;;;;6.53;4.90;;;14.50;99.90;;;;;;5035265;28;20453;-58
2023/06/10 02:06:59;;;;;;;10.73;6.00;;;14.40;99.90;;;;;;5035273;28;20445;-58
2023/06/10 02:09:26;;;;;;;8.17;5.57;;;14.30;99.90;;;;;;5036491;28;20480;-56
2023/06/10 02:11:54;;;;;;;9.47;6.33;;;14.30;99.90;;;;;;5035829;28;20441;-57
2023/06/10 02:14:21;;;;;;;8.07;5.57;;;14.30;99.90;;;;;;5034894;28;20468;-56
2023/06/10 02:16:47;;;;;;;7.23;5.40;;;14.20;99.90;;;;;;5035245;28;20483;-57
2023/06/10 02:19:15;;;;;;;10.10;5.77;;;14.20;99.90;;;;;;5035475;28;20445;-56
2023/06/10 02:21:41;;;;;;;6.57;5.60;;;14.10;99.90;;;;;;5035225;28;20459;-58
2023/06/10 02:24:08;;;;;;;7.60;5.40;;;14.10;99.90;;;;;;5035019;28;20465;-59
2023/06/10 02:26:35;;;;;;;6.60;5.97;;;14.00;99.90;;;;;;5035246;28;20452;-56
2023/06/10 02:29:03;;;;;;;8.33;6.33;;;14.00;99.90;;;;;;5035216;28;20443;-57
2023/06/10 02:31:30;;;;;;;8.60;6.47;;;13.90;99.90;;;;;;5034949;28;20514;-57
2023/06/10 02:33:57;;;;;;;7.87;5.77;;;13.90;99.90;;;;;;5035705;28;21016;-58
2023/06/10 02:36:24;;;;;;;11.83;6.67;;;13.90;99.90;;;;;;5035796;28;20478;-57
2023/06/10 02:38:51;;;;;;;11.30;6.10;;;13.90;99.90;;;;;;5035170;28;20994;-58
2023/06/10 02:41:17;;;;;;;9.73;6.40;;;13.80;99.90;;;;;;5035015;28;20499;-56
2023/06/10 02:43:44;;;;;;;13.13;6.17;;;13.80;99.90;;;;;;5035244;28;20469;-56
2023/06/10 02:46:12;;;;;;;9.00;6.27;;;13.70;99.90;;;;;;5034848;28;20445;-58
2023/06/10 02:48:43;;;;;;;9.80;5.77;;;13.70;99.90;;;;;;5034514;28;20919;-57
2023/06/10 02:51:10;;;;;;;10.07;6.33;;;13.60;99.90;;;;;;5033994;28;20865;-58
2023/06/10 02:53:37;;;;;;;11.00;6.80;;;13.60;99.90;;;;;;5034691;28;20592;-58
2023/06/10 02:56:04;;;;;;;6.37;5.30;;;13.60;99.90;;;;;;5034555;28;20429;-58
2023/06/10 02:58:32;;;;;;;8.40;5.70;;;13.50;99.90;;;;;;5034177;28;20482;-58
2023/06/10 03:00:59;;;;;;;11.70;6.87;;;13.50;99.90;;;;;;5034837;28;20571;-58
2023/06/10 03:03:27;;;;;;;7.50;6.40;;;13.40;99.90;;;;;;5034503;28;20987;-58
2023/06/10 03:05:54;;;;;;;7.67;6.17;;;13.40;99.90;;;;;;5034491;28;20947;-56
2023/06/10 03:08:21;;;;;;;8.33;6.20;;;13.40;99.90;;;;;;5034482;28;20524;-57
2023/06/10 03:10:47;;;;;;;9.10;6.53;;;13.30;99.90;;;;;;5034623;28;20453;-58
2023/06/10 03:13:15;;;;;;;7.10;5.63;;;13.30;99.90;;;;;;5034396;28;20465;-56
2023/06/10 03:15:42;;;;;;;6.97;6.27;;;13.30;99.90;;;;;;5034184;28;20456;-58
2023/06/10 03:18:08;;;;;;;9.97;6.57;;;13.20;99.90;;;;;;5033995;28;20492;-58
2023/06/10 03:20:37;;;;;;;8.60;6.30;;;13.20;99.90;;;;;;5034530;28;20452;-59
2023/06/10 03:23:05;;;;;;;8.87;6.63;;;13.20;99.90;;;;;;5033747;28;21022;-58
2023/06/10 03:25:31;;;;;;;9.03;7.20;;;13.20;99.90;;;;;;5035002;28;20438;-58
2023/06/10 03:27:58;;;;;;;10.10;7.07;;;13.20;99.90;;;;;;5034428;28;20448;-58
2023/06/10 03:30:25;;;;;;;10.40;6.90;;;13.20;99.90;;;;;;5035887;28;20448;-59
2023/06/10 03:32:52;;;;;;;10.47;6.20;;;13.10;99.90;;;;;;5034867;28;20448;-57
2023/06/10 03:35:19;;;;;;;10.20;7.20;;;13.10;99.90;;;;;;5035208;28;20449;-57
2023/06/10 03:37:47;;;;;;;8.40;6.60;;;13.10;99.90;;;;;;5033664;28;20476;-58
2023/06/10 03:40:14;;;;;;;11.90;7.33;;;13.10;99.90;;;;;;5033927;28;20455;-56
2023/06/10 03:42:40;;;;;;;9.70;6.40;;;13.10;99.90;;;;;;5033953;28;20476;-56
2023/06/10 03:45:08;;;;;;;8.40;7.10;;;13.10;99.90;;;;;;5033935;28;20471;-58
2023/06/10 03:47:36;;;;;;;8.83;6.33;;;13.10;99.90;;;;;;5034101;28;20516;-56
2023/06/10 03:50:04;;;;;;;8.40;6.40;;;13.10;99.90;;;;;;5033335;28;20940;-58
2023/06/10 03:52:31;;;;;;;13.43;7.43;;;13.20;99.90;;;;;;5034311;28;20448;-57
2023/06/10 03:54:59;;;;;;;8.73;7.07;;;13.30;99.90;;;;;;5056548;22;20501;-56
2023/06/10 03:57:25;;;;;;;11.00;8.30;;;13.30;99.90;;;;;;5032742;28;20488;-55
2023/06/10 03:59:52;;;;;;;10.93;6.93;;;13.40;99.90;;;;;;5032856;28;20445;-57
2023/06/10 04:02:19;;;;;;;10.73;7.17;;;13.40;99.90;;;;;;5032563;28;20452;-58
2023/06/10 04:04:46;;;;;;;15.17;6.70;;;13.40;99.90;;;;;;5032844;28;20465;-56
2023/06/10 04:07:13;;;;;;;8.10;6.67;;;13.40;99.90;;;;;;5032527;28;20540;-57
2023/06/10 04:11:51;;;;;;;8.10;6.63;;;13.40;99.90;;;;;;5090986;28;20541;-57
2023/06/10 04:14:17;;;;;;;9.47;7.60;;;13.40;99.90;;;;;;5090111;28;20465;-57
2023/06/10 04:16:44;;;;;;;14.93;7.60;;;13.50;99.90;;;;;;5090367;28;20450;-57
2023/06/10 04:19:11;;;;;;;8.87;6.60;;;13.50;99.90;;;;;;5089893;28;20936;-57
2023/06/10 04:21:38;;;;;;;8.60;7.70;;;13.50;99.90;;;;;;5089815;28;20431;-57
2023/06/10 04:24:05;;;;;;;11.03;7.77;;;13.60;99.90;;;;;;5090130;28;20458;-57
2023/06/10 04:26:33;;;;;;;9.20;6.93;;;13.70;99.90;;;;;;5089831;28;20442;-57
2023/06/10 04:29:01;;;;;;;9.17;6.90;;;13.90;99.90;;;;;;5089894;28;20443;-57
2023/06/10 04:31:28;;;;;;;9.23;6.30;;;14.30;99.90;;;;;;5089963;28;20840;-57
2023/06/10 04:33:55;;;;;;;13.17;7.90;;;14.60;99.90;;;;;;5089720;28;20606;-57
2023/06/10 04:36:22;;;;;;;7.57;5.83;;;14.90;99.90;;;;;;5089640;28;20462;-57
2023/06/10 04:38:49;;;;;;;7.67;5.50;;;15.10;99.90;;;;;;5089606;28;20438;-57
2023/06/10 04:41:15;;;;;;;9.33;7.03;;;15.30;99.90;;;;;;5089448;28;20592;-56
2023/06/10 04:43:42;;;;;;;8.37;6.27;;;15.40;99.90;;;;;;5089315;28;20983;-56
2023/06/10 04:46:10;;;;;;;9.20;6.50;;;15.40;99.90;;;;;;5090015;28;20446;-56
2023/06/10 04:48:37;;;;;;;9.37;7.50;;;15.30;99.90;;;;;;5089454;28;20488;-56
2023/06/10 04:51:05;;;;;;;10.33;5.67;;;15.50;99.90;;;;;;5089121;28;21009;-56
2023/06/10 04:53:32;;;;;;;8.47;6.20;;;15.50;99.90;;;;;;5088914;28;20988;-56
2023/06/10 04:55:58;;;;;;;7.00;6.17;;;15.50;99.90;;;;;;5089302;28;20446;-56
2023/06/10 04:58:25;;;;;;;7.27;6.00;;;15.40;99.90;;;;;;5089092;28;20450;-56
2023/06/10 05:00:52;;;;;;;10.90;6.90;;;15.40;99.90;;;;;;5089189;28;20767;-56
2023/06/10 05:03:20;;;;;;;11.90;5.90;;;15.50;99.90;;;;;;5089338;28;20442;-57
2023/06/10 05:05:47;;;;;;;5.77;5.20;;;15.60;99.90;;;;;;5089175;28;20797;-56
2023/06/10 05:08:14;;;;;;;10.10;5.63;;;15.60;99.90;;;;;;5089741;28;20442;-56
2023/06/10 05:10:40;;;;;;;6.33;5.23;;;15.60;99.90;;;;;;5089204;28;20489;-57
2023/06/10 05:13:07;;;;;;;7.40;5.90;;;15.90;99.90;;;;;;5089175;28;20898;-56
2023/06/10 05:15:34;;;;;;;7.13;5.00;;;16.20;99.90;;;;;;5089265;28;20850;-56
2023/06/10 05:18:02;;;;;;;9.10;5.20;;;16.50;99.90;;;;;;5089137;28;20959;-56
2023/06/10 05:20:30;;;;;;;7.03;4.83;;;16.70;99.90;;;;;;5089866;28;20945;-57
2023/06/10 05:22:57;;;;;;;9.03;5.40;;;16.90;99.90;;;;;;5078052;28;20534;-57
2023/06/10 05:25:26;;;;;;;9.77;5.60;;;17.20;99.90;;;;;;5076509;28;20487;-56
2023/06/10 05:27:53;;;;;;;10.37;5.87;;;17.30;99.90;;;;;;5076004;28;20443;-56
2023/06/10 05:30:20;;;;;;;9.30;5.53;;;17.10;99.90;;;;;;5075983;28;20474;-56
2023/06/10 05:32:46;;;;;;;10.17;6.30;;;16.80;99.90;;;;;;5075849;28;20538;-56
2023/06/10 05:35:13;;;;;;;7.30;5.60;;;16.60;99.90;;;;;;5075838;28;20708;-56
2023/06/10 05:37:42;;;;;;;7.90;5.67;;;16.50;99.90;;;;;;5075668;28;20456;-57
2023/06/10 05:40:09;;;;;;;12.97;5.77;;;16.50;99.90;;;;;;5075448;28;20439;-56
2023/06/10 05:42:36;;;;;;;7.07;5.10;;;16.80;99.90;;;;;;5075380;28;20444;-57
2023/06/10 05:45:04;;;;;;;7.93;5.40;;;17.00;99.90;;;;;;5075280;28;20841;-58
2023/06/10 05:47:30;;;;;;;6.40;5.57;;;17.10;99.90;;;;;;5076392;28;20435;-56
2023/06/10 05:49:57;;;;;;;7.67;5.17;;;17.20;99.90;;;;;;5075777;28;20527;-56
2023/06/10 05:52:24;;;;;;;7.93;5.33;;;17.20;99.90;;;;;;5075917;28;20451;-57
2023/06/10 05:54:54;;;;;;;9.97;5.20;;;17.30;99.90;;;;;;5075568;28;20474;-56
2023/06/10 05:57:20;;;;;;;6.63;5.20;;;17.50;99.90;;;;;;5075032;28;20944;-56
2023/06/10 05:59:47;;;;;;;11.47;5.37;;;17.60;99.40;;;;;;5076279;28;20447;-56
2023/06/10 06:02:14;;;;;;;8.80;4.67;;;17.50;98.80;;;;;;5075370;28;20546;-56
2023/06/10 06:04:41;;;;;;;6.33;4.97;;;17.60;99.10;;;;;;5075018;28;21022;-56
2023/06/10 06:07:08;;;;;;;7.97;5.03;;;17.70;98.80;;;;;;5074875;28;20450;-57
2023/06/10 06:09:34;;;;;;;9.30;5.10;;;17.80;98.10;;;;;;5076124;28;20927;-56
2023/06/10 06:12:03;;;;;;;11.60;5.70;;;17.70;97.60;;;;;;5083043;28;20543;-59
2023/06/10 06:14:32;;;;;;;9.60;4.90;;;17.60;98.30;;;;;;5079564;28;20468;-59
2023/06/10 06:16:59;;;;;;;6.97;5.00;;;17.60;98.80;;;;;;5075858;28;20455;-59
2023/06/10 06:19:26;;;;;;;8.27;4.50;;;17.80;98.60;;;;;;5075075;28;20455;-57
2023/06/10 06:21:53;;;;;;;7.00;4.90;;;17.90;98.10;;;;;;5075173;28;20441;-58
2023/06/10 06:24:19;;;;;;;7.93;5.00;;;18.00;97.50;;;;;;5075708;28;20473;-58
2023/06/10 06:26:46;;;;;;;10.47;6.10;;;18.10;96.50;;;;;;5075625;28;20943;-57
2023/06/10 06:29:15;;;;;;;7.33;5.57;;;18.20;96.10;;;;;;5075275;28;20447;-57
2023/06/10 06:31:41;;;;;;;9.90;6.33;;;18.20;95.50;;;;;;5075234;28;20487;-58
2023/06/10 06:34:08;;;;;;;8.37;5.40;;;18.30;95.20;;;;;;5073998;28;20517;-57
2023/06/10 06:36:35;;;;;;;5.40;4.70;;;18.30;94.20;;;;;;5075852;28;20447;-59
2023/06/10 06:39:02;;;;;;;7.43;5.33;;;18.30;93.70;;;;;;5075272;28;20451;-57
2023/06/10 06:41:29;;;;;;;7.70;5.50;;;18.20;93.60;;;;;;5078377;28;20495;-57
2023/06/10 06:43:56;;;;;;;5.63;4.90;;;18.10;93.30;;;;;;5086388;28;20547;-56
2023/06/10 06:46:24;;;;;;;6.53;5.80;;;17.90;93.70;;;;;;5085584;28;20530;-58
2023/06/10 06:48:51;;;;;;;9.73;6.03;;;17.90;94.00;;;;;;5089272;28;20469;-56
2023/06/10 06:51:17;;;;;;;6.70;4.87;;;17.90;93.90;;;;;;5079729;28;20587;-57
2023/06/10 06:53:45;;;;;;;8.63;5.20;;;17.90;93.80;;;;;;5086255;28;20813;-57
2023/06/10 06:56:12;;;;;;;5.97;5.20;;;18.00;93.50;;;;;;5086274;28;20452;-59
2023/06/10 06:58:39;;;;;;;8.47;4.60;;;17.90;93.40;;;;;;5075901;28;20450;-57
2023/06/10 07:01:06;;;;;;;8.03;5.40;;;17.90;94.00;;;;;;5075503;28;20439;-59
2023/06/10 07:03:34;;;;;;;6.40;5.13;;;17.90;94.00;;;;;;5074560;28;20459;-56
2023/06/10 07:06:01;;;;;;;9.90;6.07;;;17.90;94.10;;;;;;5074470;28;20443;-57
2023/06/10 07:08:27;;;;;;;8.90;5.67;;;17.90;94.30;;;;;;5074293;28;20457;-55
2023/06/10 07:10:54;;;;;;;8.30;5.90;;;18.00;94.10;;;;;;5073703;28;20483;-58
2023/06/10 07:13:21;;;;;;;12.13;6.03;;;18.10;93.80;;;;;;5073911;28;20431;-58
2023/06/10 07:15:48;;;;;;;11.63;5.80;;;18.20;93.80;;;;;;5074719;28;20455;-57
2023/06/10 07:18:16;;;;;;;10.27;5.50;;;18.30;93.60;;;;;;5074279;28;20489;-58
2023/06/10 07:20:44;;;;;;;9.37;6.07;;;18.50;93.40;;;;;;5074000;28;20458;-57
2023/06/10 07:23:11;;;;;;;8.50;6.23;;;18.60;92.60;;;;;;5074153;28;20455;-57
2023/06/10 07:25:38;;;;;;;7.53;5.83;;;18.70;92.60;;;;;;5073897;28;20535;-58
2023/06/10 07:28:05;;;;;;;11.63;6.00;;;18.80;92.00;;;;;;5073873;28;20443;-58
2023/06/10 07:30:32;;;;;;;7.13;4.90;;;19.00;91.60;;;;;;5073894;28;20527;-56
2023/06/10 07:32:58;;;;;;;7.37;5.60;;;19.10;91.30;;;;;;5073366;28;20952;-58
2023/06/10 07:35:25;;;;;;;7.17;5.73;;;19.10;90.70;;;;;;5073916;28;20524;-58
2023/06/10 07:37:54;;;;;;;7.93;4.90;;;19.20;90.50;;;;;;5073670;28;20786;-58
2023/06/10 07:40:20;;;;;;;10.60;6.90;;;19.20;90.50;;;;;;5073469;28;20447;-58
2023/06/10 07:42:47;;;;;;;8.73;5.53;;;19.20;90.10;;;;;;5073426;28;20439;-58
2023/06/10 07:45:14;;;;;;;7.97;4.90;;;19.40;89.90;;;;;;5072904;28;20550;-58
2023/06/10 07:47:41;;;;;;;7.70;5.60;;;19.50;88.40;;;;;;5073472;28;20447;-58
2023/06/10 07:50:09;;;;;;;10.37;5.67;;;19.50;87.60;;;;;;5073736;28;20884;-58
2023/06/10 07:52:35;;;;;;;9.33;6.30;;;19.50;87.20;;;;;;5073162;28;20487;-58
2023/06/10 07:55:05;;;;;;;9.07;6.10;;;19.50;86.60;;;;;;5072668;28;20949;-59
2023/06/10 07:57:34;;;;;;;9.30;5.60;;;19.60;85.90;;;;;;5072728;28;21018;-58
2023/06/10 08:00:03;;;;;;;7.97;5.90;;;19.60;85.30;;;;;;5073420;28;20447;-58
2023/06/10 08:02:30;;;;;;;6.50;5.23;;;19.60;84.80;;;;;;5073015;28;20442;-58
2023/06/10 08:04:57;;;;;;;6.73;5.23;;;19.70;84.40;;;;;;5073541;28;20464;-57
2023/06/10 08:07:25;;;;;;;10.33;6.37;;;19.80;84.00;;;;;;5072874;28;20449;-59
2023/06/10 08:09:52;;;;;;;9.80;6.27;;;19.90;83.30;;;;;;5072559;28;20502;-57
2023/06/10 08:12:20;;;;;;;6.80;5.20;;;20.10;82.90;;;;;;5073408;28;20463;-58
2023/06/10 08:14:47;;;;;;;8.20;5.10;;;20.20;80.90;;;;;;5073389;28;20463;-58
2023/06/10 08:17:14;;;;;;;8.17;5.40;;;20.30;80.30;;;;;;5073223;28;20442;-63
2023/06/10 08:19:40;;;;;;;6.43;5.13;;;20.40;79.70;;;;;;5072694;28;20493;-62
2023/06/10 08:22:07;;;;;;;7.30;5.00;;;20.50;78.80;;;;;;5073543;28;20528;-61
2023/06/10 08:24:34;;;;;;;8.70;4.90;;;20.60;77.60;;;;;;5073086;28;20459;-61
2023/06/10 08:27:01;;;;;;;7.43;5.20;;;20.70;76.60;;;;;;5073353;28;20538;-63
2023/06/10 08:29:31;;;;;;;7.63;5.50;;;20.80;75.00;;;;;;5073785;28;20452;-59
2023/06/10 08:31:57;;;;;;;7.13;5.10;;;20.90;74.50;;;;;;5072873;28;20479;-59
2023/06/10 08:34:24;;;;;;;9.40;5.50;;;21.00;74.00;;;;;;5072980;28;20464;-57
2023/06/10 08:36:55;;;;;;;7.07;5.17;;;21.10;73.30;;;;;;5072837;28;20444;-59
2023/06/10 08:39:23;;;;;;;10.30;5.60;;;21.20;72.90;;;;;;5072543;28;20495;-58
2023/06/10 08:41:59;;;;;;;7.60;4.97;;;21.30;72.40;;;;;;5073562;28;20476;-58
2023/06/10 08:44:31;;;;;;;10.23;6.10;;;21.40;72.30;;;;;;5072592;28;20463;-59
2023/06/10 08:47:00;;;;;;;10.47;5.43;;;21.50;70.70;;;;;;5072536;28;20436;-59
2023/06/10 08:49:31;;;;;;;8.20;5.00;;;21.60;69.70;;;;;;5072617;28;20472;-58
2023/06/10 08:52:00;;;;;;;9.50;5.20;;;21.70;69.90;;;;;;5072755;28;20479;-58
2023/06/10 08:54:32;;;;;;;5.97;4.77;;;21.80;68.50;;;;;;5072627;28;20464;-55
2023/06/10 08:57:00;;;;;;;8.23;4.80;;;21.80;67.40;;;;;;5073745;28;20434;-58
2023/06/10 08:59:27;;;;;;;5.67;5.07;;;22.00;66.80;;;;;;5076311;28;20497;-59
2023/06/10 09:01:56;;;;;;;5.70;5.20;;;22.10;65.90;;;;;;5076524;28;20449;-59
2023/06/10 09:04:24;;;;;;;5.87;4.60;;;22.30;65.10;;;;;;5076238;28;20480;-57
2023/06/10 09:06:53;;;;;;;9.60;5.20;;;22.40;64.40;;;;;;5076617;28;20454;-60
2023/06/10 09:09:20;;;;;;;8.83;5.77;;;22.60;63.80;;;;;;5076509;28;20450;-59
2023/06/10 09:11:47;;;;;;;8.83;5.40;;;22.80;63.10;;;;;;5076005;28;20825;-59
2023/06/10 09:14:16;;;;;;;7.50;4.50;;;22.90;62.30;;;;;;5076439;28;20466;-58
2023/06/10 09:16:43;;;;;;;6.53;4.60;;;23.10;61.40;;;;;;5076457;28;20597;-60
2023/06/10 09:19:12;;;;;;;9.60;5.00;;;23.20;59.90;;;;;;5076136;28;20443;-59
2023/06/10 09:21:39;;;;;;;4.93;4.43;;;23.40;59.10;;;;;;5076397;28;20451;-59
2023/06/10 09:24:06;;;;;;;9.20;4.70;;;23.50;58.40;;;;;;5077088;28;20489;-58
2023/06/10 09:26:33;;;;;;;8.33;4.03;;;23.60;57.60;;;;;;5077614;28;20448;-57
2023/06/10 09:29:04;;;;;;;6.40;4.23;;;23.70;57.00;;;;;;5076543;28;20478;-61
2023/06/10 09:31:32;;;;;;;6.70;4.10;;;23.80;56.10;;;;;;5076805;28;20463;-61
2023/06/10 09:34:07;;;;;;;6.10;4.20;;;23.90;55.60;;;;;;5076109;28;20462;-59
2023/06/10 09:36:36;;;;;;;6.63;4.67;;;24.10;55.30;;;;;;5075917;28;20439;-60
2023/06/10 09:39:04;;;;;;;7.00;5.50;;;24.20;54.60;;;;;;5075945;28;20439;-58
2023/06/10 09:41:34;;;;;;;5.80;5.30;;;24.30;54.30;;;;;;5075455;28;20541;-60
2023/06/10 09:44:02;;;;;;;5.00;4.27;;;24.30;54.20;;;;;;5076168;28;20479;-59
2023/06/10 09:46:33;;;;;;;4.60;4.00;;;24.40;54.00;;;;;;5075370;28;20540;-60
2023/06/10 09:49:00;;;;;;;8.60;4.33;;;24.40;53.80;;;;;;5075156;28;20914;-59
2023/06/10 09:51:27;;;;;;;7.03;4.77;;;24.50;53.70;;;;;;5076084;28;20522;-62
2023/06/10 09:53:55;;;;;;;7.00;4.87;;;24.50;53.60;;;;;;5088381;22;20472;-57
2023/06/10 09:56:23;;;;;;;5.70;4.47;;;24.60;53.40;;;;;;5017475;28;20464;-58
2023/06/10 09:58:53;;;;;;;4.40;4.10;;;24.80;53.10;;;;;;5016433;28;20861;-58
2023/06/10 10:01:20;;;;;;;6.23;5.63;;;24.90;53.00;;;;;;5016768;28;20435;-59
2023/06/10 10:03:48;;;;;;;8.03;4.20;;;25.00;52.90;;;;;;5016845;28;20460;-55
2023/06/10 10:06:17;;;;;;;6.63;4.60;;;25.00;52.60;;;;;;5016458;28;20459;-57
2023/06/10 10:08:44;;;;;;;5.00;4.17;;;25.10;52.80;;;;;;5016098;28;20547;-59
2023/06/10 10:11:13;;;;;;;6.50;4.90;;;25.30;52.70;;;;;;5016835;28;20475;-57
2023/06/10 10:13:40;;;;;;;5.20;4.17;;;25.50;52.30;;;;;;5016518;28;20438;-59
2023/06/10 10:16:11;;;;;;;7.70;4.70;;;25.60;51.70;;;;;;5016457;28;20456;-57
2023/06/10 10:18:42;;;;;;;9.53;4.70;;;25.60;51.40;;;;;;5016657;28;20478;-57
2023/06/10 10:21:14;;;;;;;7.70;4.50;;;25.70;50.70;;;;;;5016976;28;20426;-59
2023/06/10 10:23:48;;;;;;;7.90;4.67;;;25.70;50.20;;;;;;5016070;28;20433;-57
2023/06/10 10:26:19;;;;;;;6.27;4.40;;;25.80;50.20;;;;;;5016625;28;20436;-59
2023/06/10 10:28:52;;;;;;;6.20;4.73;;;25.90;50.20;;;;;;5018111;28;20462;-59
2023/06/10 10:31:21;;;;;;;7.97;4.93;;;26.20;49.90;;;;;;5017639;28;20422;-57
2023/06/10 10:33:56;;;;;;;7.60;4.63;;;26.30;49.30;;;;;;5016576;28;20464;-57
2023/06/10 10:36:23;;;;;;;7.07;4.63;;;26.40;49.20;;;;;;5016605;28;20906;-59
2023/06/10 10:38:50;;;;;;;5.47;4.90;;;26.40;49.10;;;;;;5016909;28;20443;-60
2023/06/10 10:41:20;;;;;;;7.70;4.70;;;26.40;49.30;;;;;;5016772;28;20482;-59
2023/06/10 10:43:48;;;;;;;6.87;4.60;;;26.40;49.50;;;;;;5016185;28;20972;-57
2023/06/10 10:46:17;;;;;;;5.80;5.20;;;26.50;49.70;;;;;;5016747;28;20455;-58
2023/06/10 10:48:44;;;;;;;7.83;5.07;;;26.60;49.70;;;;;;5016183;28;21032;-58
2023/06/10 10:51:12;;;;;;;5.83;5.33;;;26.60;49.90;;;;;;5017238;28;20448;-59
2023/06/10 10:53:39;;;;;;;7.40;4.93;;;26.60;50.10;;;;;;5017626;28;20482;-58
2023/06/10 10:56:07;;;;;;;10.03;4.83;;;26.70;50.20;;;;;;5017788;28;20468;-60
2023/06/10 10:58:36;;;;;;;7.30;5.50;;;26.80;50.10;;;;;;5017899;28;20812;-60
2023/06/10 11:01:12;;;;;;;6.10;4.90;;;26.80;50.00;;;;;;5018882;28;20444;-60
2023/06/10 11:03:45;;;;;;;6.30;4.83;;;26.80;50.80;;;;;;5018604;28;20770;-59
2023/06/10 11:06:14;;;;;;;7.17;5.30;;;26.90;50.40;;;;;;5017911;28;20495;-58
2023/06/10 11:08:50;;;;;;;6.60;5.50;;;27.00;50.50;;;;;;5018032;28;20445;-57
2023/06/10 11:11:22;;;;;;;8.63;5.70;;;27.20;50.40;;;;;;5017251;28;20461;-59
2023/06/10 11:14:09;;;;;;;6.83;5.70;;;27.30;50.20;;;;;;5016766;28;21036;-58
2023/06/10 11:16:42;;;;;;;7.10;6.07;;;27.30;50.10;;;;;;5018107;28;20599;-60
2023/06/10 11:19:09;;;;;;;6.63;5.83;;;27.40;50.10;;;;;;5018214;28;20493;-56
2023/06/10 11:21:53;;;;;;;8.03;6.03;;;27.50;50.00;;;;;;5019922;28;20960;-58
2023/06/10 11:24:20;;;;;;;7.73;6.17;;;27.70;49.90;;;;;;5021004;28;21001;-58
2023/06/10 11:26:47;;;;;;;6.20;5.70;;;27.80;49.30;;;;;;5022297;28;20960;-60
2023/06/10 11:29:16;;;;;;;7.27;6.60;;;27.80;49.40;;;;;;5022782;28;20481;-57
2023/06/10 11:31:47;;;;;;;7.20;5.57;;;27.70;49.60;;;;;;5019154;28;20472;-58
2023/06/10 11:34:14;;;;;;;6.53;5.90;;;27.60;49.70;;;;;;5016140;28;20473;-57
2023/06/10 11:36:45;;;;;;;7.97;6.67;;;27.70;49.80;;;;;;5015704;28;20938;-58
2023/06/10 11:39:12;;;;;;;8.90;6.80;;;27.80;49.50;;;;;;5016105;28;20426;-59
2023/06/10 11:41:40;;;;;;;7.30;6.10;;;27.90;49.10;;;;;;5015030;28;20457;-58
2023/06/10 11:44:10;;;;;;;8.13;6.30;;;27.90;49.10;;;;;;5015806;28;20471;-58
2023/06/10 11:46:39;;;;;;;9.17;6.77;;;27.90;48.60;;;;;;5016611;28;20450;-58
2023/06/10 11:49:07;;;;;;;7.27;6.67;;;28.00;48.40;;;;;;5015133;28;20816;-59
2023/06/10 11:51:36;;;;;;;7.87;7.07;;;28.20;48.00;;;;;;5015127;28;20870;-59
2023/06/10 11:54:04;;;;;;;6.23;5.60;;;28.40;47.30;;;;;;5014736;28;20992;-58
2023/06/10 11:56:32;;;;;;;7.60;6.77;;;28.70;46.80;;;;;;5015174;28;20476;-58
2023/06/10 11:59:04;;;;;;;7.70;7.00;;;29.10;45.90;;;;;;5015411;28;20451;-59
2023/06/10 12:01:32;;;;;;;7.53;6.87;;;29.50;44.90;;;;;;5014439;28;20509;-57
2023/06/10 12:04:02;;;;;;;8.97;7.00;;;29.90;44.00;;;;;;5014360;28;20470;-56
2023/06/10 12:06:38;;;;;;;10.73;6.97;;;30.20;43.30;;;;;;5014866;28;20815;-57
2023/06/10 12:09:05;;;;;;;9.07;7.30;;;30.50;42.70;;;;;;5014791;28;20907;-59
2023/06/10 12:11:32;;;;;;;8.40;6.80;;;30.90;42.30;;;;;;5015207;28;20988;-57
2023/06/10 12:13:59;;;;;;;7.90;7.07;;;31.00;41.80;;;;;;5015775;28;20483;-59
2023/06/10 12:16:26;;;;;;;9.47;6.80;;;31.20;41.40;;;;;;5015384;28;20439;-58
2023/06/10 12:19:04;;;;;;;7.83;7.03;;;31.30;40.80;;;;;;5014220;28;20932;-57
2023/06/10 12:21:31;;;;;;;8.03;7.00;;;31.40;40.30;;;;;;5014380;28;20778;-57
2023/06/10 12:24:04;;;;;;;7.97;7.17;;;31.40;40.20;;;;;;5014053;28;20468;-58
2023/06/10 12:26:42;;;;;;;7.60;6.80;;;31.60;40.10;;;;;;5013764;28;20496;-58
2023/06/10 12:29:20;;;;;;;8.23;7.47;;;31.90;39.80;;;;;;5014810;28;20522;-59
2023/06/10 12:31:54;;;;;;;7.40;6.70;;;32.20;39.30;;;;;;5015885;28;20459;-57
2023/06/10 12:34:29;;;;;;;7.43;6.83;;;32.30;38.60;;;;;;5019075;28;20515;-59
2023/06/10 12:36:56;;;;;;;8.13;7.53;;;32.00;38.30;;;;;;5018941;28;20430;-58
2023/06/10 12:39:23;;;;;;;7.27;6.57;;;31.90;38.40;;;;;;5018900;28;20468;-56
2023/06/10 12:41:51;;;;;;;7.27;6.57;;;31.70;38.60;;;;;;5018609;28;20453;-57
2023/06/10 12:44:18;;;;;;;8.17;7.10;;;31.40;39.00;;;;;;5018494;28;20468;-58
2023/06/10 12:46:45;;;;;;;8.97;6.10;;;31.00;39.50;;;;;;5018220;28;20451;-58
2023/06/10 12:49:21;;;;;;;7.53;6.83;;;30.50;40.20;;;;;;5017869;28;20452;-59
2023/06/10 12:51:48;;;;;;;7.10;6.37;;;30.20;41.00;;;;;;5017786;28;20522;-58